createdAt,value
2019-04-27T00:02:49.414Z,8.10
2019-04-27T00:05:35.417Z,8.10
2019-04-27T00:08:13.972Z,8.10
2019-04-27T00:10:48.646Z,8.00
2019-04-27T00:13:17.776Z,8.00
2019-04-27T00:15:55.201Z,7.90
2019-04-27T00:18:45.554Z,7.90
2019-04-27T00:21:24.348Z,7.90
2019-04-27T00:23:53.354Z,7.90
2019-04-27T00:26:23.299Z,7.90
2019-04-27T00:28:53.794Z,7.90
2019-04-27T00:31:23.393Z,7.80
2019-04-27T00:33:53.551Z,7.80
2019-04-27T00:36:32.950Z,7.80
2019-04-27T00:39:08.019Z,7.80
2019-04-27T00:41:36.870Z,7.80
2019-04-27T00:44:06.189Z,7.70
2019-04-27T00:46:35.027Z,7.70
2019-04-27T00:49:03.859Z,7.70
2019-04-27T00:51:33.273Z,7.60
2019-04-27T00:54:02.282Z,7.60
2019-04-27T00:56:54.909Z,7.50
2019-04-27T00:59:55.301Z,7.50
2019-04-27T01:02:39.877Z,7.40
2019-04-27T01:05:16.766Z,7.40
2019-04-27T01:07:45.874Z,7.30
2019-04-27T01:10:14.976Z,7.30
2019-04-27T01:12:43.765Z,7.20
2019-04-27T01:15:13.751Z,7.20
2019-04-27T01:17:42.768Z,7.10
2019-04-27T01:20:11.697Z,7.00
2019-04-27T01:22:40.540Z,6.90
2019-04-27T01:25:09.569Z,6.90
2019-04-27T01:27:56.081Z,6.80
2019-04-27T01:30:39.210Z,6.70
2019-04-27T01:33:09.639Z,6.70
2019-04-27T01:35:39.148Z,6.60
2019-04-27T01:38:09.050Z,6.60
2019-04-27T01:40:38.577Z,6.60
2019-04-27T01:43:09.155Z,6.60
2019-04-27T01:45:39.150Z,6.60
2019-04-27T01:48:20.829Z,6.50
2019-04-27T01:50:39.244Z,6.50
2019-04-27T01:53:09.082Z,6.50
2019-04-27T01:55:38.678Z,6.50
2019-04-27T01:58:10.856Z,6.60
2019-04-27T02:00:49.876Z,6.60
2019-04-27T02:03:22.035Z,6.60
2019-04-27T02:05:54.023Z,6.60
2019-04-27T02:08:22.929Z,6.50
2019-04-27T02:10:51.868Z,6.50
2019-04-27T02:13:20.893Z,6.50
2019-04-27T02:15:49.837Z,6.50
2019-04-27T02:18:19.413Z,6.40
2019-04-27T02:20:49.172Z,6.30
2019-04-27T02:23:19.245Z,6.20
2019-04-27T02:25:49.689Z,6.20
2019-04-27T02:28:40.812Z,6.20
2019-04-27T02:31:29.058Z,6.20
2019-04-27T02:34:09.521Z,6.20
2019-04-27T02:36:39.181Z,6.20
2019-04-27T02:39:09.516Z,6.20
2019-04-27T02:41:39.999Z,6.10
2019-04-27T02:44:16.941Z,5.90
2019-04-27T02:46:45.949Z,5.80
2019-04-27T02:49:14.714Z,5.80
2019-04-27T02:51:50.075Z,5.70
2019-04-27T02:54:20.392Z,5.70
2019-04-27T02:56:50.054Z,5.70
2019-04-27T02:59:20.082Z,5.70
2019-04-27T03:01:55.142Z,5.70
2019-04-27T03:04:24.149Z,5.80
2019-04-27T03:06:53.180Z,5.70
2019-04-27T03:09:21.954Z,5.70
2019-04-27T03:11:51.566Z,5.70
2019-04-27T03:14:45.545Z,5.70
2019-04-27T03:17:42.377Z,5.60
2019-04-27T03:20:29.850Z,5.60
2019-04-27T03:23:01.381Z,5.70
2019-04-27T03:25:53.954Z,5.60
2019-04-27T03:28:22.873Z,5.60
2019-04-27T03:30:52.569Z,5.50
2019-04-27T03:33:22.723Z,5.50
2019-04-27T03:35:52.940Z,5.50
2019-04-27T03:38:22.377Z,5.50
2019-04-27T03:40:53.059Z,5.40
2019-04-27T03:43:24.553Z,5.40
2019-04-27T03:45:54.103Z,5.30
2019-04-27T03:48:23.036Z,5.30
2019-04-27T03:51:19.694Z,5.30
2019-04-27T03:54:07.229Z,5.20
2019-04-27T03:56:44.642Z,5.20
2019-04-27T03:59:29.497Z,5.10
2019-04-27T04:01:59.067Z,5.10
2019-04-27T04:04:29.610Z,5.10
2019-04-27T04:07:15.757Z,5.10
2019-04-27T04:09:44.730Z,5.10
2019-04-27T04:12:32.753Z,5.10
2019-04-27T04:15:01.528Z,5.10
2019-04-27T04:17:30.985Z,5.10
2019-04-27T04:20:01.940Z,5.00
2019-04-27T04:22:31.516Z,5.00
2019-04-27T04:25:00.305Z,5.10
2019-04-27T04:27:29.852Z,5.10
2019-04-27T04:29:59.563Z,5.10
2019-04-27T04:32:29.842Z,5.10
2019-04-27T04:35:21.696Z,5.20
2019-04-27T04:37:52.877Z,5.20
2019-04-27T04:40:25.225Z,5.30
2019-04-27T04:43:03.371Z,5.30
2019-04-27T04:46:04.860Z,5.40
2019-04-27T04:48:33.307Z,5.50
2019-04-27T04:51:02.210Z,5.50
2019-04-27T04:53:31.046Z,5.50
2019-04-27T04:56:00.472Z,5.50
2019-04-27T04:58:29.566Z,5.60
2019-04-27T05:00:59.685Z,5.60
2019-04-27T05:03:29.324Z,5.70
2019-04-27T05:05:58.840Z,5.70
2019-04-27T05:08:29.207Z,5.80
2019-04-27T05:10:59.687Z,5.80
2019-04-27T05:13:29.406Z,5.90
2019-04-27T05:15:58.976Z,5.90
2019-04-27T05:18:29.283Z,5.90
2019-04-27T05:21:10.213Z,5.90
2019-04-27T05:23:39.074Z,6.00
2019-04-27T05:26:09.083Z,6.00
2019-04-27T05:28:40.472Z,6.10
2019-04-27T05:31:09.153Z,6.20
2019-04-27T05:33:38.876Z,6.20
2019-04-27T05:36:10.016Z,6.20
2019-04-27T05:38:41.926Z,6.20
2019-04-27T05:41:09.373Z,6.20
2019-04-27T05:43:50.008Z,6.30
2019-04-27T05:46:47.111Z,6.40
2019-04-27T05:49:20.679Z,6.70
2019-04-27T05:51:50.168Z,6.90
2019-04-27T05:54:19.717Z,7.10
2019-04-27T05:56:49.225Z,7.20
2019-04-27T05:59:19.820Z,7.40
2019-04-27T06:01:49.299Z,7.50
2019-04-27T06:04:19.266Z,7.60
2019-04-27T06:06:49.942Z,7.60
2019-04-27T06:09:19.540Z,7.60
2019-04-27T06:11:50.597Z,7.70
2019-04-27T06:14:19.336Z,7.80
2019-04-27T06:16:49.365Z,7.80
2019-04-27T06:19:19.345Z,7.80
2019-04-27T06:21:49.850Z,8.00
2019-04-27T06:24:18.856Z,8.40
2019-04-27T06:26:49.618Z,8.80
2019-04-27T06:29:19.540Z,9.10
2019-04-27T06:31:49.654Z,9.50
2019-04-27T06:34:19.349Z,9.80
2019-04-27T06:36:48.697Z,10.20
2019-04-27T06:39:18.936Z,10.60
2019-04-27T06:41:49.035Z,10.70
2019-04-27T06:44:19.557Z,10.70
2019-04-27T06:46:49.021Z,10.80
2019-04-27T06:49:19.485Z,10.90
2019-04-27T06:51:49.803Z,11.10
2019-04-27T06:54:19.758Z,11.10
2019-04-27T06:56:50.198Z,11.10
2019-04-27T06:59:18.974Z,11.20
2019-04-27T07:01:48.851Z,11.30
2019-04-27T07:04:19.453Z,11.40
2019-04-27T07:06:54.118Z,11.60
2019-04-27T07:09:19.632Z,11.50
2019-04-27T07:11:49.398Z,11.80
2019-04-27T07:14:19.686Z,11.70
2019-04-27T07:16:50.547Z,11.40
2019-04-27T07:19:19.292Z,11.50
2019-04-27T07:21:49.737Z,11.80
2019-04-27T07:24:19.617Z,11.70
2019-04-27T07:26:48.928Z,11.90
2019-04-27T07:29:19.509Z,12.00
